KCLS/CLS METAR and TAF weather

Enter ICAO airport designator
Station Type Date Time Source
KCLS METAR 2020/09/20 11:35 UTC NOAA

KCLS 201135Z AUTO 00000KT 10SM FEW011 OVC031 16/16 A3010 RMK AO2


Station Type Date Time Source
KCLS Decoded METAR 2020/09/20 11:35 UTC NOAA

Station name not available
Sep 20, 2020 - 07:35 AM EDT / 2020.09.20 1135 UTC
Wind: Calm:0
Visibility: 10 mile(s):0
Sky conditions: overcast
Temperature: 60 F (16 C)
Dew Point: 60 F (16 C)
Relative Humidity: 100%
Pressure (altimeter): 30.1 in. Hg (1019 hPa)
ob: KCLS 201135Z AUTO 00000KT 10SM FEW011 OVC031 16/16 A3010 RMK AO2
cycle: 11

Station Type Date Time Source
KCLS TAF UTC NOAA

Error!

Example: see airport list